sensor_id;sensor_type;location;lat;lon;timestamp;P1;durP1;ratioP1;P2;durP2;ratioP2
55063;SDS011;40963;52.168;21.296;2023-05-23T00:01:01;12.75;;;7.40;;
55063;SDS011;40963;52.168;21.296;2023-05-23T00:03:27;13.80;;;7.68;;
55063;SDS011;40963;52.168;21.296;2023-05-23T00:05:55;13.63;;;8.27;;
55063;SDS011;40963;52.168;21.296;2023-05-23T00:08:21;15.13;;;7.72;;
55063;SDS011;40963;52.168;21.296;2023-05-23T00:10:46;18.48;;;8.13;;
55063;SDS011;40963;52.168;21.296;2023-05-23T00:13:12;14.48;;;7.63;;
55063;SDS011;40963;52.168;21.296;2023-05-23T00:15:38;14.90;;;8.32;;
55063;SDS011;40963;52.168;21.296;2023-05-23T00:18:05;13.80;;;7.55;;
55063;SDS011;40963;52.168;21.296;2023-05-23T00:20:32;23.08;;;7.95;;
55063;SDS011;40963;52.168;21.296;2023-05-23T00:23:00;15.80;;;7.85;;
55063;SDS011;40963;52.168;21.296;2023-05-23T00:25:27;17.20;;;8.23;;
55063;SDS011;40963;52.168;21.296;2023-05-23T00:28:01;14.80;;;8.25;;
55063;SDS011;40963;52.168;21.296;2023-05-23T00:30:28;10.65;;;7.40;;
55063;SDS011;40963;52.168;21.296;2023-05-23T00:32:55;16.00;;;8.10;;
55063;SDS011;40963;52.168;21.296;2023-05-23T00:35:21;15.98;;;7.75;;
55063;SDS011;40963;52.168;21.296;2023-05-23T00:37:50;12.95;;;7.53;;
55063;SDS011;40963;52.168;21.296;2023-05-23T00:40:18;10.65;;;7.47;;
55063;SDS011;40963;52.168;21.296;2023-05-23T00:42:44;15.75;;;8.02;;
55063;SDS011;40963;52.168;21.296;2023-05-23T00:45:11;15.02;;;7.82;;
55063;SDS011;40963;52.168;21.296;2023-05-23T00:47:40;15.73;;;7.93;;
55063;SDS011;40963;52.168;21.296;2023-05-23T00:50:07;16.85;;;7.60;;
55063;SDS011;40963;52.168;21.296;2023-05-23T00:52:35;13.18;;;7.53;;
55063;SDS011;40963;52.168;21.296;2023-05-23T00:55:01;18.10;;;8.07;;
55063;SDS011;40963;52.168;21.296;2023-05-23T00:57:27;17.23;;;8.32;;
55063;SDS011;40963;52.168;21.296;2023-05-23T00:59:53;16.65;;;8.10;;
55063;SDS011;40963;52.168;21.296;2023-05-23T01:02:18;11.90;;;8.10;;
55063;SDS011;40963;52.168;21.296;2023-05-23T01:04:45;16.63;;;7.85;;
55063;SDS011;40963;52.168;21.296;2023-05-23T01:07:18;13.40;;;8.20;;
55063;SDS011;40963;52.168;21.296;2023-05-23T01:09:44;20.08;;;8.38;;
55063;SDS011;40963;52.168;21.296;2023-05-23T01:14:48;18.90;;;8.80;;
55063;SDS011;40963;52.168;21.296;2023-05-23T01:17:31;18.77;;;8.68;;
55063;SDS011;40963;52.168;21.296;2023-05-23T01:20:23;14.93;;;8.45;;
55063;SDS011;40963;52.168;21.296;2023-05-23T01:28:25;16.63;;;8.02;;
55063;SDS011;40963;52.168;21.296;2023-05-23T01:30:53;13.35;;;8.13;;
55063;SDS011;40963;52.168;21.296;2023-05-23T01:33:22;15.27;;;7.95;;
55063;SDS011;40963;52.168;21.296;2023-05-23T01:35:49;11.52;;;7.82;;
55063;SDS011;40963;52.168;21.296;2023-05-23T01:38:16;18.73;;;9.02;;
55063;SDS011;40963;52.168;21.296;2023-05-23T01:40:41;13.93;;;7.80;;
55063;SDS011;40963;52.168;21.296;2023-05-23T01:43:07;26.85;;;8.00;;
55063;SDS011;40963;52.168;21.296;2023-05-23T01:45:32;13.07;;;7.70;;
55063;SDS011;40963;52.168;21.296;2023-05-23T01:47:59;15.73;;;8.77;;
55063;SDS011;40963;52.168;21.296;2023-05-23T01:50:26;18.38;;;8.93;;
55063;SDS011;40963;52.168;21.296;2023-05-23T01:52:52;18.33;;;7.65;;
55063;SDS011;40963;52.168;21.296;2023-05-23T01:55:19;14.10;;;8.20;;
55063;SDS011;40963;52.168;21.296;2023-05-23T01:57:50;12.43;;;7.72;;
55063;SDS011;40963;52.168;21.296;2023-05-23T02:00:19;12.98;;;7.78;;
55063;SDS011;40963;52.168;21.296;2023-05-23T02:02:45;14.82;;;8.40;;
55063;SDS011;40963;52.168;21.296;2023-05-23T02:05:11;12.38;;;7.97;;
55063;SDS011;40963;52.168;21.296;2023-05-23T02:07:36;12.30;;;7.70;;
55063;SDS011;40963;52.168;21.296;2023-05-23T02:10:02;13.55;;;7.85;;
55063;SDS011;40963;52.168;21.296;2023-05-23T02:12:28;11.65;;;7.13;;
55063;SDS011;40963;52.168;21.296;2023-05-23T02:14:54;15.02;;;8.25;;
55063;SDS011;40963;52.168;21.296;2023-05-23T02:17:20;14.30;;;8.15;;
55063;SDS011;40963;52.168;21.296;2023-05-23T02:19:49;12.55;;;7.93;;
55063;SDS011;40963;52.168;21.296;2023-05-23T02:22:15;17.08;;;8.25;;
55063;SDS011;40963;52.168;21.296;2023-05-23T02:24:40;15.52;;;7.88;;
55063;SDS011;40963;52.168;21.296;2023-05-23T02:27:06;16.63;;;8.32;;
55063;SDS011;40963;52.168;21.296;2023-05-23T02:29:32;12.57;;;7.80;;
55063;SDS011;40963;52.168;21.296;2023-05-23T02:31:57;13.95;;;8.45;;
55063;SDS011;40963;52.168;21.296;2023-05-23T02:34:23;13.77;;;7.97;;
55063;SDS011;40963;52.168;21.296;2023-05-23T02:36:48;12.40;;;7.70;;
55063;SDS011;40963;52.168;21.296;2023-05-23T02:39:15;16.45;;;7.88;;
55063;SDS011;40963;52.168;21.296;2023-05-23T02:41:41;15.68;;;7.22;;
55063;SDS011;40963;52.168;21.296;2023-05-23T02:44:07;18.85;;;8.30;;
55063;SDS011;40963;52.168;21.296;2023-05-23T02:46:32;10.55;;;7.68;;
55063;SDS011;40963;52.168;21.296;2023-05-23T02:48:58;11.00;;;7.38;;
55063;SDS011;40963;52.168;21.296;2023-05-23T02:51:23;12.73;;;7.75;;
55063;SDS011;40963;52.168;21.296;2023-05-23T02:53:50;13.05;;;7.35;;
55063;SDS011;40963;52.168;21.296;2023-05-23T02:56:15;14.48;;;7.38;;
55063;SDS011;40963;52.168;21.296;2023-05-23T02:58:41;16.58;;;7.63;;
55063;SDS011;40963;52.168;21.296;2023-05-23T03:01:06;12.68;;;7.25;;
55063;SDS011;40963;52.168;21.296;2023-05-23T03:03:32;13.02;;;7.68;;
55063;SDS011;40963;52.168;21.296;2023-05-23T03:05:58;14.07;;;7.60;;
55063;SDS011;40963;52.168;21.296;2023-05-23T03:08:24;20.73;;;8.13;;
55063;SDS011;40963;52.168;21.296;2023-05-23T03:10:50;10.95;;;7.00;;
55063;SDS011;40963;52.168;21.296;2023-05-23T03:13:16;11.93;;;7.20;;
55063;SDS011;40963;52.168;21.296;2023-05-23T03:15:42;11.68;;;7.32;;
55063;SDS011;40963;52.168;21.296;2023-05-23T03:18:08;12.27;;;7.45;;
55063;SDS011;40963;52.168;21.296;2023-05-23T03:20:33;13.57;;;7.63;;
55063;SDS011;40963;52.168;21.296;2023-05-23T03:22:59;10.85;;;7.57;;
55063;SDS011;40963;52.168;21.296;2023-05-23T03:25:25;13.35;;;7.70;;
55063;SDS011;40963;52.168;21.296;2023-05-23T03:27:50;14.30;;;7.28;;
55063;SDS011;40963;52.168;21.296;2023-05-23T03:30:16;11.00;;;7.95;;
55063;SDS011;40963;52.168;21.296;2023-05-23T03:32:42;12.43;;;7.43;;
55063;SDS011;40963;52.168;21.296;2023-05-23T03:35:08;13.73;;;7.38;;
55063;SDS011;40963;52.168;21.296;2023-05-23T03:37:33;15.80;;;7.65;;
55063;SDS011;40963;52.168;21.296;2023-05-23T03:39:59;13.93;;;7.95;;
55063;SDS011;40963;52.168;21.296;2023-05-23T03:42:26;12.95;;;7.30;;
55063;SDS011;40963;52.168;21.296;2023-05-23T03:44:52;15.20;;;7.93;;
55063;SDS011;40963;52.168;21.296;2023-05-23T03:47:17;20.48;;;7.93;;
55063;SDS011;40963;52.168;21.296;2023-05-23T03:49:43;14.70;;;7.05;;
55063;SDS011;40963;52.168;21.296;2023-05-23T03:52:09;11.43;;;7.22;;
55063;SDS011;40963;52.168;21.296;2023-05-23T03:54:35;11.85;;;7.57;;
55063;SDS011;40963;52.168;21.296;2023-05-23T03:57:01;12.02;;;7.30;;
55063;SDS011;40963;52.168;21.296;2023-05-23T03:59:27;16.20;;;7.35;;
55063;SDS011;40963;52.168;21.296;2023-05-23T04:01:52;10.88;;;6.63;;
55063;SDS011;40963;52.168;21.296;2023-05-23T04:04:19;15.98;;;6.80;;
55063;SDS011;40963;52.168;21.296;2023-05-23T04:06:48;12.48;;;7.03;;
55063;SDS011;40963;52.168;21.296;2023-05-23T04:09:15;11.70;;;6.85;;
55063;SDS011;40963;52.168;21.296;2023-05-23T04:11:41;12.32;;;7.40;;
55063;SDS011;40963;52.168;21.296;2023-05-23T04:14:07;10.93;;;6.70;;
55063;SDS011;40963;52.168;21.296;2023-05-23T04:16:32;14.00;;;7.13;;
55063;SDS011;40963;52.168;21.296;2023-05-23T04:19:00;11.85;;;6.63;;
55063;SDS011;40963;52.168;21.296;2023-05-23T04:21:26;10.77;;;6.40;;
55063;SDS011;40963;52.168;21.296;2023-05-23T04:23:52;9.70;;;6.43;;
55063;SDS011;40963;52.168;21.296;2023-05-23T04:26:17;11.27;;;6.80;;
55063;SDS011;40963;52.168;21.296;2023-05-23T04:28:44;9.50;;;6.45;;
55063;SDS011;40963;52.168;21.296;2023-05-23T04:31:11;9.27;;;6.45;;
55063;SDS011;40963;52.168;21.296;2023-05-23T04:33:36;12.10;;;6.88;;
55063;SDS011;40963;52.168;21.296;2023-05-23T04:36:02;12.68;;;5.55;;
55063;SDS011;40963;52.168;21.296;2023-05-23T04:38:28;12.82;;;6.18;;
55063;SDS011;40963;52.168;21.296;2023-05-23T04:40:54;12.75;;;5.93;;
55063;SDS011;40963;52.168;21.296;2023-05-23T04:43:21;9.20;;;5.63;;
55063;SDS011;40963;52.168;21.296;2023-05-23T04:45:50;11.35;;;5.72;;
55063;SDS011;40963;52.168;21.296;2023-05-23T04:48:18;6.72;;;5.20;;
55063;SDS011;40963;52.168;21.296;2023-05-23T04:50:45;11.90;;;5.07;;
55063;SDS011;40963;52.168;21.296;2023-05-23T04:53:12;7.97;;;5.45;;
55063;SDS011;40963;52.168;21.296;2023-05-23T04:55:38;7.45;;;5.28;;
55063;SDS011;40963;52.168;21.296;2023-05-23T04:58:03;10.23;;;4.85;;
55063;SDS011;40963;52.168;21.296;2023-05-23T05:00:29;6.15;;;4.60;;
55063;SDS011;40963;52.168;21.296;2023-05-23T05:02:54;11.27;;;5.05;;
55063;SDS011;40963;52.168;21.296;2023-05-23T05:05:20;9.43;;;5.20;;
55063;SDS011;40963;52.168;21.296;2023-05-23T05:07:46;13.98;;;4.88;;
55063;SDS011;40963;52.168;21.296;2023-05-23T05:10:11;7.40;;;5.03;;
55063;SDS011;40963;52.168;21.296;2023-05-23T05:12:41;8.00;;;4.68;;
55063;SDS011;40963;52.168;21.296;2023-05-23T05:15:11;6.07;;;4.18;;
55063;SDS011;40963;52.168;21.296;2023-05-23T05:17:37;12.25;;;5.10;;
55063;SDS011;40963;52.168;21.296;2023-05-23T05:20:03;8.52;;;4.45;;
55063;SDS011;40963;52.168;21.296;2023-05-23T05:22:33;11.15;;;3.95;;
55063;SDS011;40963;52.168;21.296;2023-05-23T05:25:04;12.48;;;4.45;;
55063;SDS011;40963;52.168;21.296;2023-05-23T05:27:31;9.05;;;4.20;;
55063;SDS011;40963;52.168;21.296;2023-05-23T05:29:57;8.55;;;4.07;;
55063;SDS011;40963;52.168;21.296;2023-05-23T05:32:28;6.25;;;4.00;;
55063;SDS011;40963;52.168;21.296;2023-05-23T05:34:55;5.63;;;4.32;;
55063;SDS011;40963;52.168;21.296;2023-05-23T05:37:20;14.02;;;4.70;;
55063;SDS011;40963;52.168;21.296;2023-05-23T05:39:46;9.50;;;4.25;;
55063;SDS011;40963;52.168;21.296;2023-05-23T05:42:12;14.68;;;4.57;;
55063;SDS011;40963;52.168;21.296;2023-05-23T05:44:37;8.15;;;5.10;;
55063;SDS011;40963;52.168;21.296;2023-05-23T05:47:03;6.50;;;4.22;;
55063;SDS011;40963;52.168;21.296;2023-05-23T05:49:29;7.65;;;4.18;;
55063;SDS011;40963;52.168;21.296;2023-05-23T05:51:55;6.13;;;3.95;;
55063;SDS011;40963;52.168;21.296;2023-05-23T05:54:20;10.40;;;4.30;;
55063;SDS011;40963;52.168;21.296;2023-05-23T05:56:46;10.40;;;4.07;;
55063;SDS011;40963;52.168;21.296;2023-05-23T05:59:12;13.20;;;3.80;;
55063;SDS011;40963;52.168;21.296;2023-05-23T06:01:37;6.57;;;3.70;;
55063;SDS011;40963;52.168;21.296;2023-05-23T06:04:03;4.85;;;3.58;;
55063;SDS011;40963;52.168;21.296;2023-05-23T06:06:28;12.38;;;4.35;;
55063;SDS011;40963;52.168;21.296;2023-05-23T06:08:54;15.43;;;5.50;;
55063;SDS011;40963;52.168;21.296;2023-05-23T06:11:19;12.65;;;4.40;;
55063;SDS011;40963;52.168;21.296;2023-05-23T06:13:45;8.35;;;4.93;;
55063;SDS011;40963;52.168;21.296;2023-05-23T06:16:10;6.13;;;4.22;;
55063;SDS011;40963;52.168;21.296;2023-05-23T06:18:36;8.85;;;4.18;;
55063;SDS011;40963;52.168;21.296;2023-05-23T06:21:02;8.75;;;3.60;;
55063;SDS011;40963;52.168;21.296;2023-05-23T06:23:27;7.65;;;3.88;;
55063;SDS011;40963;52.168;21.296;2023-05-23T06:25:53;11.13;;;3.70;;
55063;SDS011;40963;52.168;21.296;2023-05-23T06:28:18;5.38;;;3.58;;
55063;SDS011;40963;52.168;21.296;2023-05-23T06:30:44;7.95;;;4.03;;
55063;SDS011;40963;52.168;21.296;2023-05-23T06:33:10;6.78;;;3.88;;
55063;SDS011;40963;52.168;21.296;2023-05-23T06:35:36;4.20;;;3.63;;
55063;SDS011;40963;52.168;21.296;2023-05-23T06:38:01;4.95;;;3.70;;
55063;SDS011;40963;52.168;21.296;2023-05-23T06:40:27;11.63;;;3.30;;
55063;SDS011;40963;52.168;21.296;2023-05-23T06:42:53;7.45;;;3.53;;
55063;SDS011;40963;52.168;21.296;2023-05-23T06:45:18;4.97;;;3.42;;
55063;SDS011;40963;52.168;21.296;2023-05-23T06:47:44;4.82;;;3.03;;
55063;SDS011;40963;52.168;21.296;2023-05-23T06:50:11;7.63;;;3.78;;
55063;SDS011;40963;52.168;21.296;2023-05-23T06:52:37;5.05;;;3.30;;
55063;SDS011;40963;52.168;21.296;2023-05-23T06:55:03;5.22;;;3.25;;
55063;SDS011;40963;52.168;21.296;2023-05-23T06:57:29;4.13;;;2.90;;
55063;SDS011;40963;52.168;21.296;2023-05-23T06:59:54;3.20;;;2.90;;
55063;SDS011;40963;52.168;21.296;2023-05-23T07:02:20;7.80;;;3.22;;
55063;SDS011;40963;52.168;21.296;2023-05-23T07:04:47;3.13;;;2.75;;
55063;SDS011;40963;52.168;21.296;2023-05-23T07:07:12;6.03;;;3.28;;
55063;SDS011;40963;52.168;21.296;2023-05-23T07:09:38;5.22;;;2.70;;
55063;SDS011;40963;52.168;21.296;2023-05-23T07:12:04;6.28;;;3.00;;
55063;SDS011;40963;52.168;21.296;2023-05-23T07:14:30;3.72;;;2.85;;
55063;SDS011;40963;52.168;21.296;2023-05-23T07:16:56;3.35;;;2.50;;
55063;SDS011;40963;52.168;21.296;2023-05-23T07:19:21;5.95;;;2.85;;
55063;SDS011;40963;52.168;21.296;2023-05-23T07:21:47;4.15;;;2.80;;
55063;SDS011;40963;52.168;21.296;2023-05-23T07:24:13;6.00;;;2.28;;
55063;SDS011;40963;52.168;21.296;2023-05-23T07:26:38;3.67;;;2.50;;
55063;SDS011;40963;52.168;21.296;2023-05-23T07:29:04;9.68;;;2.60;;
55063;SDS011;40963;52.168;21.296;2023-05-23T07:31:29;3.80;;;2.35;;
55063;SDS011;40963;52.168;21.296;2023-05-23T07:33:55;3.90;;;2.20;;
55063;SDS011;40963;52.168;21.296;2023-05-23T07:36:21;4.85;;;2.45;;
55063;SDS011;40963;52.168;21.296;2023-05-23T07:38:47;9.63;;;3.17;;
55063;SDS011;40963;52.168;21.296;2023-05-23T07:41:13;9.13;;;4.30;;
55063;SDS011;40963;52.168;21.296;2023-05-23T07:43:38;3.70;;;2.42;;
55063;SDS011;40963;52.168;21.296;2023-05-23T07:46:04;3.63;;;2.50;;
55063;SDS011;40963;52.168;21.296;2023-05-23T07:48:30;4.22;;;2.28;;
55063;SDS011;40963;52.168;21.296;2023-05-23T07:50:56;2.42;;;1.95;;
55063;SDS011;40963;52.168;21.296;2023-05-23T07:53:21;3.33;;;2.05;;
55063;SDS011;40963;52.168;21.296;2023-05-23T07:55:47;3.25;;;2.10;;
55063;SDS011;40963;52.168;21.296;2023-05-23T07:58:13;4.63;;;2.05;;
55063;SDS011;40963;52.168;21.296;2023-05-23T08:00:38;5.93;;;2.20;;
55063;SDS011;40963;52.168;21.296;2023-05-23T08:03:05;5.68;;;2.20;;
55063;SDS011;40963;52.168;21.296;2023-05-23T08:05:31;2.30;;;1.98;;
55063;SDS011;40963;52.168;21.296;2023-05-23T08:07:57;2.63;;;2.20;;
55063;SDS011;40963;52.168;21.296;2023-05-23T08:10:23;5.22;;;1.90;;
55063;SDS011;40963;52.168;21.296;2023-05-23T08:12:50;3.53;;;2.65;;
55063;SDS011;40963;52.168;21.296;2023-05-23T08:15:15;2.88;;;2.08;;
55063;SDS011;40963;52.168;21.296;2023-05-23T08:17:41;3.95;;;2.10;;
55063;SDS011;40963;52.168;21.296;2023-05-23T08:20:07;2.30;;;2.20;;
55063;SDS011;40963;52.168;21.296;2023-05-23T08:22:34;2.97;;;2.08;;
55063;SDS011;40963;52.168;21.296;2023-05-23T08:25:00;2.50;;;1.95;;
55063;SDS011;40963;52.168;21.296;2023-05-23T08:27:26;3.80;;;1.95;;
55063;SDS011;40963;52.168;21.296;2023-05-23T08:29:54;11.13;;;2.03;;
55063;SDS011;40963;52.168;21.296;2023-05-23T08:32:19;2.65;;;2.22;;
55063;SDS011;40963;52.168;21.296;2023-05-23T08:34:45;5.35;;;2.20;;
55063;SDS011;40963;52.168;21.296;2023-05-23T08:37:10;3.65;;;2.20;;
55063;SDS011;40963;52.168;21.296;2023-05-23T08:39:36;5.38;;;2.10;;
55063;SDS011;40963;52.168;21.296;2023-05-23T08:42:02;5.88;;;2.03;;
55063;SDS011;40963;52.168;21.296;2023-05-23T08:44:28;4.80;;;1.90;;
55063;SDS011;40963;52.168;21.296;2023-05-23T08:46:53;6.78;;;1.90;;
55063;SDS011;40963;52.168;21.296;2023-05-23T08:49:19;4.35;;;1.80;;
55063;SDS011;40963;52.168;21.296;2023-05-23T08:51:46;2.22;;;2.03;;
55063;SDS011;40963;52.168;21.296;2023-05-23T08:54:18;6.88;;;2.25;;
55063;SDS011;40963;52.168;21.296;2023-05-23T08:56:46;2.83;;;2.10;;
55063;SDS011;40963;52.168;21.296;2023-05-23T08:59:11;4.43;;;2.15;;
55063;SDS011;40963;52.168;21.296;2023-05-23T09:01:39;2.42;;;1.98;;
55063;SDS011;40963;52.168;21.296;2023-05-23T09:04:05;6.32;;;2.00;;
55063;SDS011;40963;52.168;21.296;2023-05-23T09:06:31;7.97;;;2.17;;
55063;SDS011;40963;52.168;21.296;2023-05-23T09:08:56;4.70;;;2.00;;
55063;SDS011;40963;52.168;21.296;2023-05-23T09:11:22;3.67;;;2.10;;
55063;SDS011;40963;52.168;21.296;2023-05-23T09:13:49;2.42;;;2.15;;
55063;SDS011;40963;52.168;21.296;2023-05-23T09:16:14;11.00;;;2.53;;
55063;SDS011;40963;52.168;21.296;2023-05-23T09:18:42;5.60;;;1.90;;
55063;SDS011;40963;52.168;21.296;2023-05-23T09:21:09;2.33;;;1.90;;
55063;SDS011;40963;52.168;21.296;2023-05-23T09:23:35;6.53;;;2.10;;
55063;SDS011;40963;52.168;21.296;2023-05-23T09:26:07;3.00;;;2.08;;
55063;SDS011;40963;52.168;21.296;2023-05-23T09:28:34;5.28;;;2.10;;
55063;SDS011;40963;52.168;21.296;2023-05-23T09:31:02;6.95;;;2.20;;
55063;SDS011;40963;52.168;21.296;2023-05-23T09:33:46;7.97;;;2.40;;
55063;SDS011;40963;52.168;21.296;2023-05-23T09:38:43;2.22;;;2.03;;
55063;SDS011;40963;52.168;21.296;2023-05-23T09:41:10;6.45;;;2.30;;
55063;SDS011;40963;52.168;21.296;2023-05-23T09:43:39;8.40;;;2.17;;
55063;SDS011;40963;52.168;21.296;2023-05-23T09:46:15;6.85;;;2.30;;
55063;SDS011;40963;52.168;21.296;2023-05-23T09:48:47;2.17;;;1.90;;
55063;SDS011;40963;52.168;21.296;2023-05-23T09:51:16;2.40;;;2.03;;
55063;SDS011;40963;52.168;21.296;2023-05-23T09:53:43;9.50;;;1.90;;
55063;SDS011;40963;52.168;21.296;2023-05-23T09:56:09;4.03;;;2.00;;
55063;SDS011;40963;52.168;21.296;2023-05-23T09:58:35;4.07;;;1.90;;
55063;SDS011;40963;52.168;21.296;2023-05-23T10:01:03;3.95;;;2.10;;
55063;SDS011;40963;52.168;21.296;2023-05-23T10:03:36;5.78;;;1.83;;
55063;SDS011;40963;52.168;21.296;2023-05-23T10:06:25;4.40;;;1.90;;
55063;SDS011;40963;52.168;21.296;2023-05-23T10:09:01;8.32;;;1.90;;
55063;SDS011;40963;52.168;21.296;2023-05-23T10:14:20;6.20;;;1.98;;
55063;SDS011;40963;52.168;21.296;2023-05-23T10:16:54;4.20;;;2.20;;
55063;SDS011;40963;52.168;21.296;2023-05-23T10:19:32;3.78;;;1.83;;
55063;SDS011;40963;52.168;21.296;2023-05-23T10:22:09;3.30;;;1.85;;
55063;SDS011;40963;52.168;21.296;2023-05-23T10:24:36;2.15;;;1.90;;
55063;SDS011;40963;52.168;21.296;2023-05-23T10:27:02;2.65;;;2.10;;
55063;SDS011;40963;52.168;21.296;2023-05-23T10:29:28;4.40;;;2.35;;
55063;SDS011;40963;52.168;21.296;2023-05-23T10:31:55;2.85;;;1.92;;
55063;SDS011;40963;52.168;21.296;2023-05-23T10:34:33;4.28;;;2.00;;
55063;SDS011;40963;52.168;21.296;2023-05-23T10:37:06;5.03;;;2.10;;
55063;SDS011;40963;52.168;21.296;2023-05-23T10:42:22;4.65;;;2.30;;
55063;SDS011;40963;52.168;21.296;2023-05-23T10:45:18;8.52;;;2.10;;
55063;SDS011;40963;52.168;21.296;2023-05-23T10:47:46;3.05;;;1.85;;
55063;SDS011;40963;52.168;21.296;2023-05-23T10:50:13;2.13;;;2.00;;
55063;SDS011;40963;52.168;21.296;2023-05-23T10:52:41;3.03;;;2.33;;
55063;SDS011;40963;52.168;21.296;2023-05-23T10:55:14;3.40;;;2.03;;
55063;SDS011;40963;52.168;21.296;2023-05-23T10:57:41;6.43;;;2.40;;
55063;SDS011;40963;52.168;21.296;2023-05-23T11:00:12;4.70;;;2.20;;
55063;SDS011;40963;52.168;21.296;2023-05-23T11:02:53;5.93;;;2.00;;
55063;SDS011;40963;52.168;21.296;2023-05-23T11:05:23;16.02;;;2.20;;
55063;SDS011;40963;52.168;21.296;2023-05-23T11:08:11;4.43;;;2.25;;
55063;SDS011;40963;52.168;21.296;2023-05-23T11:10:54;2.53;;;2.20;;
55063;SDS011;40963;52.168;21.296;2023-05-23T11:16:25;4.55;;;2.35;;
55063;SDS011;40963;52.168;21.296;2023-05-23T11:19:10;3.92;;;2.30;;
55063;SDS011;40963;52.168;21.296;2023-05-23T11:21:44;4.40;;;2.33;;
55063;SDS011;40963;52.168;21.296;2023-05-23T11:24:17;4.90;;;2.40;;
55063;SDS011;40963;52.168;21.296;2023-05-23T11:26:53;2.47;;;2.28;;
55063;SDS011;40963;52.168;21.296;2023-05-23T11:29:24;2.42;;;2.20;;
55063;SDS011;40963;52.168;21.296;2023-05-23T11:31:53;4.35;;;2.13;;
55063;SDS011;40963;52.168;21.296;2023-05-23T11:34:24;3.08;;;2.17;;
55063;SDS011;40963;52.168;21.296;2023-05-23T11:36:53;2.92;;;2.33;;
55063;SDS011;40963;52.168;21.296;2023-05-23T11:39:20;6.45;;;2.42;;
55063;SDS011;40963;52.168;21.296;2023-05-23T11:41:49;2.45;;;2.25;;
55063;SDS011;40963;52.168;21.296;2023-05-23T11:44:26;6.65;;;2.80;;
55063;SDS011;40963;52.168;21.296;2023-05-23T11:46:58;3.25;;;2.10;;
55063;SDS011;40963;52.168;21.296;2023-05-23T11:49:26;8.20;;;2.20;;
55063;SDS011;40963;52.168;21.296;2023-05-23T11:51:53;2.97;;;2.42;;
55063;SDS011;40963;52.168;21.296;2023-05-23T11:54:21;4.07;;;2.30;;
55063;SDS011;40963;52.168;21.296;2023-05-23T11:56:50;5.40;;;2.33;;
55063;SDS011;40963;52.168;21.296;2023-05-23T11:59:16;3.25;;;2.50;;
55063;SDS011;40963;52.168;21.296;2023-05-23T12:01:42;4.78;;;3.22;;
55063;SDS011;40963;52.168;21.296;2023-05-23T12:04:08;6.30;;;2.67;;
55063;SDS011;40963;52.168;21.296;2023-05-23T12:06:38;6.20;;;2.50;;
55063;SDS011;40963;52.168;21.296;2023-05-23T12:09:09;6.03;;;2.70;;
55063;SDS011;40963;52.168;21.296;2023-05-23T12:11:36;4.38;;;2.50;;
55063;SDS011;40963;52.168;21.296;2023-05-23T12:14:04;2.83;;;2.55;;
55063;SDS011;40963;52.168;21.296;2023-05-23T12:16:33;4.63;;;2.78;;
55063;SDS011;40963;52.168;21.296;2023-05-23T12:19:00;3.95;;;2.70;;
55063;SDS011;40963;52.168;21.296;2023-05-23T12:21:40;6.07;;;2.72;;
55063;SDS011;40963;52.168;21.296;2023-05-23T12:24:19;5.47;;;2.80;;
55063;SDS011;40963;52.168;21.296;2023-05-23T12:26:47;3.25;;;2.80;;
55063;SDS011;40963;52.168;21.296;2023-05-23T12:29:20;4.13;;;2.65;;
55063;SDS011;40963;52.168;21.296;2023-05-23T12:34:18;3.45;;;2.72;;
55063;SDS011;40963;52.168;21.296;2023-05-23T12:36:44;3.33;;;2.65;;
55063;SDS011;40963;52.168;21.296;2023-05-23T12:39:13;5.25;;;2.95;;
55063;SDS011;40963;52.168;21.296;2023-05-23T12:41:43;4.28;;;3.00;;
55063;SDS011;40963;52.168;21.296;2023-05-23T12:44:09;7.57;;;2.45;;
55063;SDS011;40963;52.168;21.296;2023-05-23T12:46:35;5.47;;;2.75;;
55063;SDS011;40963;52.168;21.296;2023-05-23T12:49:01;4.13;;;2.50;;
55063;SDS011;40963;52.168;21.296;2023-05-23T12:51:27;2.88;;;2.55;;
55063;SDS011;40963;52.168;21.296;2023-05-23T12:53:53;3.05;;;2.78;;
55063;SDS011;40963;52.168;21.296;2023-05-23T12:56:19;4.85;;;3.25;;
55063;SDS011;40963;52.168;21.296;2023-05-23T12:58:46;4.40;;;3.08;;
55063;SDS011;40963;52.168;21.296;2023-05-23T13:01:12;3.78;;;2.60;;
55063;SDS011;40963;52.168;21.296;2023-05-23T13:03:38;2.92;;;2.63;;
55063;SDS011;40963;52.168;21.296;2023-05-23T13:06:03;8.00;;;2.60;;
55063;SDS011;40963;52.168;21.296;2023-05-23T13:08:30;2.90;;;2.47;;
55063;SDS011;40963;52.168;21.296;2023-05-23T13:10:56;3.17;;;2.65;;
55063;SDS011;40963;52.168;21.296;2023-05-23T13:13:21;2.70;;;2.50;;
55063;SDS011;40963;52.168;21.296;2023-05-23T13:15:47;7.97;;;2.90;;
55063;SDS011;40963;52.168;21.296;2023-05-23T13:18:13;2.67;;;2.38;;
55063;SDS011;40963;52.168;21.296;2023-05-23T13:20:39;8.13;;;2.85;;
55063;SDS011;40963;52.168;21.296;2023-05-23T13:23:06;2.70;;;2.40;;
55063;SDS011;40963;52.168;21.296;2023-05-23T13:25:33;4.25;;;2.80;;
55063;SDS011;40963;52.168;21.296;2023-05-23T13:27:59;4.50;;;2.83;;
55063;SDS011;40963;52.168;21.296;2023-05-23T13:30:26;9.93;;;2.95;;
55063;SDS011;40963;52.168;21.296;2023-05-23T13:32:52;7.50;;;3.03;;
55063;SDS011;40963;52.168;21.296;2023-05-23T13:35:18;8.82;;;2.83;;
55063;SDS011;40963;52.168;21.296;2023-05-23T13:37:44;6.85;;;3.00;;
55063;SDS011;40963;52.168;21.296;2023-05-23T13:40:16;6.28;;;3.10;;
55063;SDS011;40963;52.168;21.296;2023-05-23T13:42:43;5.43;;;2.70;;
55063;SDS011;40963;52.168;21.296;2023-05-23T13:45:09;12.77;;;3.17;;
55063;SDS011;40963;52.168;21.296;2023-05-23T13:47:35;3.33;;;3.00;;
55063;SDS011;40963;52.168;21.296;2023-05-23T13:50:02;3.03;;;2.72;;
55063;SDS011;40963;52.168;21.296;2023-05-23T13:52:28;3.20;;;2.90;;
55063;SDS011;40963;52.168;21.296;2023-05-23T13:54:53;3.65;;;3.00;;
55063;SDS011;40963;52.168;21.296;2023-05-23T13:57:19;4.35;;;2.85;;
55063;SDS011;40963;52.168;21.296;2023-05-23T13:59:45;3.47;;;3.17;;
55063;SDS011;40963;52.168;21.296;2023-05-23T14:02:11;2.92;;;2.60;;
55063;SDS011;40963;52.168;21.296;2023-05-23T14:04:36;4.60;;;2.55;;
55063;SDS011;40963;52.168;21.296;2023-05-23T14:07:02;5.43;;;3.30;;
55063;SDS011;40963;52.168;21.296;2023-05-23T14:09:28;4.70;;;3.47;;
55063;SDS011;40963;52.168;21.296;2023-05-23T14:11:53;3.67;;;3.00;;
55063;SDS011;40963;52.168;21.296;2023-05-23T14:14:19;3.90;;;2.85;;
55063;SDS011;40963;52.168;21.296;2023-05-23T14:16:44;3.55;;;2.55;;
55063;SDS011;40963;52.168;21.296;2023-05-23T14:19:10;3.58;;;3.00;;
55063;SDS011;40963;52.168;21.296;2023-05-23T14:21:36;4.90;;;3.10;;
55063;SDS011;40963;52.168;21.296;2023-05-23T14:24:02;5.00;;;2.92;;
55063;SDS011;40963;52.168;21.296;2023-05-23T14:26:28;5.93;;;3.25;;
55063;SDS011;40963;52.168;21.296;2023-05-23T14:28:54;4.63;;;3.20;;
55063;SDS011;40963;52.168;21.296;2023-05-23T14:31:19;4.68;;;3.13;;
55063;SDS011;40963;52.168;21.296;2023-05-23T14:33:46;4.88;;;3.00;;
55063;SDS011;40963;52.168;21.296;2023-05-23T14:36:13;10.85;;;3.15;;
55063;SDS011;40963;52.168;21.296;2023-05-23T14:38:39;4.65;;;3.25;;
55063;SDS011;40963;52.168;21.296;2023-05-23T14:41:05;7.30;;;3.42;;
55063;SDS011;40963;52.168;21.296;2023-05-23T14:43:31;4.53;;;3.40;;
55063;SDS011;40963;52.168;21.296;2023-05-23T14:45:57;4.07;;;3.17;;
55063;SDS011;40963;52.168;21.296;2023-05-23T14:48:23;4.40;;;3.00;;
55063;SDS011;40963;52.168;21.296;2023-05-23T14:50:49;7.25;;;3.40;;